Time;durP1;ratioP1;P1;durP2;ratioP2;P2;SDS_P1;SDS_P2;PMS_P1;PMS_P2;Temp;Humidity;BMP_temperature;BMP_pressure;BME280_temperature;BME280_humidity;BME280_pressure;Samples;Min_cycle;Max_cycle;Signal;HPM_P1;HPM_P2
2022/10/16 00:01:33;;;;;;;;;0.67;0.67;;;;;17.72;83.14;100805.72;5076210;28;45421;-75
2022/10/16 00:04:00;;;;;;;;;0.00;0.00;;;;;17.72;83.16;100797.63;5066787;28;45480;-75
2022/10/16 00:06:27;;;;;;;;;1.00;1.00;;;;;17.71;83.32;100796.78;5077896;28;47249;-75
2022/10/16 00:08:53;;;;;;;;;2.00;0.00;;;;;17.66;83.60;100793.66;5077589;28;45349;-75
2022/10/16 00:11:24;;;;;;;;;1.00;1.00;;;;;17.13;83.24;100714.66;5061257;28;45522;-74
2022/10/16 00:13:54;;;;;;;;;2.00;1.00;;;;;17.63;83.59;100800.16;5057483;28;45431;-75
2022/10/16 00:16:19;;;;;;;;;0.33;0.33;;;;;17.23;84.17;100751.59;5070086;28;46385;-75
2022/10/16 00:18:45;;;;;;;;;0.00;0.00;;;;;17.59;83.85;100825.69;5077440;28;45288;-76
2022/10/16 00:21:14;;;;;;;;;0.00;0.00;;;;;17.63;84.06;100829.84;5057582;28;46678;-76
2022/10/16 00:23:39;;;;;;;;;0.00;0.00;;;;;17.59;83.96;100814.06;5044055;28;45470;-76
2022/10/16 00:26:08;;;;;;;;;0.00;0.00;;;;;17.64;84.20;100817.22;5018420;28;46067;-76
2022/10/16 00:28:34;;;;;;;;;0.00;0.00;;;;;17.31;83.98;100757.16;5066444;28;45382;-75
2022/10/16 00:31:03;;;;;;;;;0.00;0.00;;;;;17.60;84.60;100804.97;5077480;28;45370;-76
2022/10/16 00:33:29;;;;;;;;;0.67;0.67;;;;;17.59;84.64;100811.38;5077495;28;45478;-75
2022/10/16 00:35:57;;;;;;;;;0.00;0.00;;;;;17.43;84.47;100799.22;5077422;28;45370;-76
2022/10/16 00:38:23;;;;;;;;;0.00;0.00;;;;;17.43;84.73;100804.63;5076628;28;45476;-76
2022/10/16 00:40:48;;;;;;;;;0.00;0.00;;;;;17.51;84.57;100814.75;5077192;28;45321;-76
2022/10/16 00:43:34;;;;;;;;;0.00;0.00;;;;;17.56;84.63;100828.69;5077812;28;45448;-75
2022/10/16 00:46:01;;;;;;;;;0.33;0.33;;;;;17.26;84.52;100778.28;5076955;28;46271;-75
2022/10/16 00:48:27;;;;;;;;;0.00;0.00;;;;;17.53;84.97;100811.91;5077672;28;45430;-76
2022/10/16 00:50:53;;;;;;;;;0.00;0.00;;;;;17.53;84.59;100825.38;5059344;28;45541;-76
2022/10/16 00:53:19;;;;;;;;;0.33;0.00;;;;;17.50;84.62;100826.50;5077361;28;45382;-75
2022/10/16 00:55:45;;;;;;;;;0.67;0.00;;;;;17.47;84.38;100824.94;5076745;28;45409;-75
2022/10/16 00:58:11;;;;;;;;;0.67;0.00;;;;;17.55;84.53;100843.16;5076909;28;45432;-75
2022/10/16 01:00:36;;;;;;;;;0.33;0.33;;;;;17.58;84.50;100844.72;5076784;28;45449;-76
2022/10/16 01:03:02;;;;;;;;;0.00;0.00;;;;;17.49;84.79;100846.38;5077717;28;45571;-76
2022/10/16 01:05:51;;;;;;;;;0.67;0.00;;;;;17.51;84.56;100849.78;5077084;28;45533;-76
2022/10/16 01:08:33;;;;;;;;;0.00;0.00;;;;;17.58;84.48;100850.13;5084054;28;45445;-76
2022/10/16 01:11:13;;;;;;;;;0.00;0.00;;;;;17.61;84.38;100852.53;5069637;28;45445;-75
2022/10/16 01:13:46;;;;;;;;;0.00;0.00;;;;;17.61;83.98;100845.31;5036541;28;45469;-75
2022/10/16 01:16:22;;;;;;;;;0.00;0.00;;;;;17.61;83.88;100844.44;5036235;28;45571;-76
2022/10/16 01:18:57;;;;;;;;;0.00;0.00;;;;;17.46;83.57;100825.94;5036343;28;45423;-75
2022/10/16 01:21:27;;;;;;;;;0.00;0.00;;;;;17.70;83.45;100865.22;5035229;28;45339;-76
2022/10/16 01:24:14;;;;;;;;;0.00;0.00;;;;;17.71;83.41;100863.38;5053258;28;45300;-76
2022/10/16 01:27:04;;;;;;;;;0.00;0.00;;;;;17.71;83.11;100852.56;5076064;28;46130;-76
2022/10/16 01:29:39;;;;;;;;;0.00;0.00;;;;;17.69;83.13;100852.72;5076151;28;45444;-75
2022/10/16 01:32:15;;;;;;;;;1.00;1.00;;;;;17.67;82.73;100860.09;5076882;28;45418;-76
2022/10/16 01:34:58;;;;;;;;;0.67;0.67;;;;;17.67;82.68;100862.81;5076030;28;45393;-75
2022/10/16 01:37:36;;;;;;;;;0.00;0.00;;;;;17.43;82.78;100820.78;5076140;28;46222;-75
2022/10/16 01:40:08;;;;;;;;;0.00;0.00;;;;;17.45;82.85;100824.22;5075773;28;45296;-74
2022/10/16 01:42:42;;;;;;;;;0.67;0.00;;;;;17.44;82.73;100827.91;5076414;28;45365;-74
2022/10/16 01:45:11;;;;;;;;;0.00;0.00;;;;;17.59;83.09;100849.97;5075470;28;45354;-75
2022/10/16 01:47:37;;;;;;;;;0.00;0.00;;;;;17.60;83.09;100850.81;5075691;28;46208;-74
2022/10/16 01:50:06;;;;;;;;;1.67;1.00;;;;;17.58;82.84;100848.25;5075611;28;45330;-75
2022/10/16 01:52:34;;;;;;;;;0.00;0.00;;;;;17.59;82.65;100841.88;5076054;28;45344;-75
2022/10/16 01:55:05;;;;;;;;;0.00;0.00;;;;;17.62;82.52;100848.84;5075997;28;45382;-75
2022/10/16 01:57:33;;;;;;;;;0.00;0.00;;;;;17.53;82.81;100841.56;5075183;28;45332;-74
2022/10/16 02:00:05;;;;;;;;;0.67;0.67;;;;;17.61;82.36;100852.53;5067300;28;45490;-74
2022/10/16 02:02:31;;;;;;;;;0.67;0.00;;;;;17.26;82.30;100792.63;5075579;27;45466;-75
2022/10/16 02:05:14;;;;;;;;;0.00;0.00;;;;;17.60;82.34;100854.38;5073883;28;45548;-75
2022/10/16 02:07:41;;;;;;;;;0.00;0.00;;;;;17.64;82.33;100857.69;5075631;27;45465;-75
2022/10/16 02:10:08;;;;;;;;;0.00;0.00;;;;;17.47;82.24;100838.41;5074414;28;45400;-75
2022/10/16 02:12:39;;;;;;;;;0.00;0.00;;;;;17.44;82.38;100818.97;5075320;27;45634;-75
2022/10/16 02:15:05;;;;;;;;;0.00;0.00;;;;;17.59;81.94;100860.75;5075039;27;45546;-75
2022/10/16 02:17:30;;;;;;;;;0.00;0.00;;;;;17.45;81.74;100840.41;5075318;28;47092;-74
2022/10/16 02:19:59;;;;;;;;;0.00;0.00;;;;;17.51;82.66;100865.13;5075306;27;45368;-74
2022/10/16 02:22:28;;;;;;;;;2.00;1.00;;;;;17.00;82.68;100780.53;5075523;27;45494;-75
2022/10/16 02:24:59;;;;;;;;;0.00;0.00;;;;;17.49;82.74;100865.25;5075804;28;45573;-75
2022/10/16 02:27:35;;;;;;;;;0.00;0.00;;;;;17.40;82.90;100853.44;5075447;28;45402;-75
2022/10/16 02:30:36;;;;;;;;;1.00;0.00;;;;;17.42;83.02;100848.72;5075558;28;45591;-75
2022/10/16 02:33:05;;;;;;;;;1.00;0.00;;;;;17.48;82.83;100842.81;5074924;28;45427;-75
2022/10/16 02:35:31;;;;;;;;;0.00;0.00;;;;;17.49;82.53;100847.22;5075474;28;45456;-74
2022/10/16 02:37:57;;;;;;;;;0.00;0.00;;;;;17.35;82.46;100834.09;5075321;28;45297;-75
2022/10/16 02:40:24;;;;;;;;;0.00;0.00;;;;;17.20;82.33;100813.88;5075083;28;45372;-74
2022/10/16 02:42:51;;;;;;;;;1.00;0.00;;;;;17.30;82.24;100839.91;5075104;28;45246;-74
2022/10/16 02:45:17;;;;;;;;;0.00;0.00;;;;;17.42;82.32;100862.22;5075414;28;45278;-75
2022/10/16 02:47:43;;;;;;;;;2.00;0.00;;;;;17.39;81.76;100867.03;5074495;28;46743;-74
2022/10/16 02:50:08;;;;;;;;;0.33;0.33;;;;;17.39;81.68;100872.44;5075060;27;45793;-74
2022/10/16 02:52:34;;;;;;;;;0.00;0.00;;;;;17.36;81.57;100875.41;5075737;27;45420;-75
2022/10/16 02:54:59;;;;;;;;;0.67;0.00;;;;;17.36;81.61;100880.78;5074934;28;45533;-74
2022/10/16 02:57:25;;;;;;;;;0.00;0.00;;;;;17.38;81.90;100884.19;5074887;27;47083;-74
2022/10/16 02:59:50;;;;;;;;;0.00;0.00;;;;;17.38;82.04;100882.34;5073317;28;45480;-74
2022/10/16 03:02:16;;;;;;;;;0.00;0.00;;;;;17.44;81.72;100884.53;5075085;27;45389;-75
2022/10/16 03:04:41;;;;;;;;;0.00;0.00;;;;;17.45;81.54;100894.34;5074950;27;45608;-74
2022/10/16 03:07:07;;;;;;;;;0.00;0.00;;;;;17.45;81.49;100883.53;5073449;28;48111;-74
2022/10/16 03:09:33;;;;;;;;;1.00;1.00;;;;;17.18;81.44;100845.47;5075080;27;45603;-75
2022/10/16 03:11:58;;;;;;;;;1.00;0.00;;;;;17.44;81.41;100884.53;5073585;28;45437;-74
2022/10/16 03:14:24;;;;;;;;;0.00;0.00;;;;;17.37;81.13;100858.22;5075632;27;45377;-75
2022/10/16 03:16:49;;;;;;;;;0.00;0.00;;;;;17.51;81.28;100870.53;5074593;27;46255;-75
2022/10/16 03:19:17;;;;;;;;;0.00;0.00;;;;;17.52;80.69;100873.09;5075018;27;45430;-74
2022/10/16 03:21:42;;;;;;;;;0.00;0.00;;;;;17.44;80.73;100860.25;5075136;27;45520;-75
2022/10/16 03:24:07;;;;;;;;;0.00;0.00;;;;;17.17;80.43;100823.06;5074858;27;45445;-75
2022/10/16 03:26:33;;;;;;;;;1.00;1.00;;;;;17.49;80.55;100866.13;5074484;27;45885;-75
2022/10/16 03:28:58;;;;;;;;;0.00;0.00;;;;;17.48;79.98;100866.25;5074826;27;45559;-75
2022/10/16 03:31:23;;;;;;;;;0.00;0.00;;;;;17.51;80.06;100860.59;5074824;27;45494;-74
2022/10/16 03:33:49;;;;;;;;;0.00;0.00;;;;;17.52;79.55;100869.50;5074778;27;45318;-74
2022/10/16 03:36:14;;;;;;;;;0.00;0.00;;;;;17.53;79.63;100879.31;5073508;28;47767;-75
2022/10/16 03:38:39;;;;;;;;;0.00;0.00;;;;;17.46;79.47;100881.69;5074596;27;45334;-75
2022/10/16 03:41:07;;;;;;;;;1.00;0.00;;;;;17.46;79.32;100870.91;5074164;28;45313;-74
2022/10/16 03:43:33;;;;;;;;;0.00;0.00;;;;;17.43;79.10;100858.53;5074468;27;45454;-74
2022/10/16 03:45:58;;;;;;;;;0.00;0.00;;;;;17.43;79.09;100880.13;5074321;27;45599;-75
2022/10/16 03:48:23;;;;;;;;;0.00;0.00;;;;;17.43;79.54;100895.44;5074446;27;45261;-75
2022/10/16 03:50:50;;;;;;;;;0.00;0.00;;;;;17.45;79.33;100877.28;5074436;27;45285;-75
2022/10/16 03:53:15;;;;;;;;;0.00;0.00;;;;;17.47;79.47;100880.72;5074355;27;45615;-75
2022/10/16 03:55:42;;;;;;;;;0.00;0.00;;;;;17.46;79.41;100885.25;5072979;28;45349;-74
2022/10/16 03:58:08;;;;;;;;;0.00;0.00;;;;;17.28;78.87;100857.19;5074273;27;45446;-75
2022/10/16 04:00:34;;;;;;;;;0.00;0.00;;;;;17.45;79.26;100879.97;5074321;27;45400;-74
2022/10/16 04:03:00;;;;;;;;;0.00;0.00;;;;;17.06;79.12;100813.22;5077748;28;45481;-75
2022/10/16 04:05:25;;;;;;;;;0.00;0.00;;;;;17.39;79.52;100867.03;5059748;28;46114;-74
2022/10/16 04:07:50;;;;;;;;;0.00;0.00;;;;;17.36;79.36;100878.09;5077748;28;45516;-74
2022/10/16 04:10:16;;;;;;;;;0.00;0.00;;;;;17.34;79.64;100883.59;5069713;28;45424;-74
2022/10/16 04:12:42;;;;;;;;;0.00;0.00;;;;;17.27;79.99;100885.13;5057660;28;45590;-75
2022/10/16 04:15:07;;;;;;;;;0.00;0.00;;;;;17.03;79.78;100845.78;5055887;28;45535;-75
2022/10/16 04:17:33;;;;;;;;;0.00;0.00;;;;;17.34;80.04;100890.84;5057639;28;45395;-75
2022/10/16 04:19:58;;;;;;;;;0.00;0.00;;;;;16.99;79.82;100838.94;5057481;28;45555;-75
2022/10/16 04:22:23;;;;;;;;;0.00;0.00;;;;;17.31;79.85;100892.81;5057714;28;45311;-75
2022/10/16 04:24:49;;;;;;;;;1.00;0.00;;;;;17.23;79.63;100884.53;5059173;28;46290;-74
2022/10/16 04:27:14;;;;;;;;;0.00;0.00;;;;;17.18;79.91;100884.09;5068366;28;45252;-75
2022/10/16 04:29:39;;;;;;;;;0.00;0.00;;;;;17.27;80.15;100896.75;5084077;28;45672;-75
2022/10/16 04:32:05;;;;;;;;;0.00;0.00;;;;;17.28;79.88;100913.81;5077849;28;45549;-74
2022/10/16 04:34:30;;;;;;;;;0.00;0.00;;;;;17.22;80.04;100931.34;5077343;28;46069;-75
2022/10/16 04:36:55;;;;;;;;;1.00;0.00;;;;;16.48;80.26;100819.81;5077493;28;45312;-75
2022/10/16 04:39:21;;;;;;;;;0.00;0.00;;;;;17.25;80.06;100925.69;5057724;28;45425;-75
2022/10/16 04:41:46;;;;;;;;;0.00;0.00;;;;;17.27;80.09;100931.78;5056725;28;45329;-76
2022/10/16 04:44:12;;;;;;;;;0.00;0.00;;;;;16.66;79.80;100824.63;5055849;28;46038;-75
2022/10/16 04:46:37;;;;;;;;;0.00;0.00;;;;;16.95;79.98;100875.22;5056485;28;45314;-75
2022/10/16 04:49:02;;;;;;;;;0.00;0.00;;;;;17.26;79.90;100937.31;5022262;28;45377;-74
2022/10/16 04:51:28;;;;;;;;;0.00;0.00;;;;;17.20;80.34;100948.63;5063388;28;45356;-75
2022/10/16 04:53:54;;;;;;;;;0.00;0.00;;;;;17.22;80.29;100957.44;5076970;28;45487;-76
2022/10/16 04:56:21;;;;;;;;;0.00;0.00;;;;;17.23;80.45;100953.75;5077112;28;45670;-75
2022/10/16 04:58:46;;;;;;;;;0.00;0.00;;;;;17.20;80.08;100954.88;5076833;28;45374;-75
2022/10/16 05:01:12;;;;;;;;;0.00;0.00;;;;;17.21;80.22;100953.03;5076941;28;45352;-75
2022/10/16 05:03:37;;;;;;;;;0.67;0.00;;;;;17.23;80.35;100959.16;5076401;28;46506;-76
2022/10/16 05:06:06;;;;;;;;;0.00;0.00;;;;;17.31;80.39;100962.06;5076723;28;45532;-75
2022/10/16 05:08:31;;;;;;;;;0.00;0.00;;;;;17.40;79.63;100960.44;5076198;28;45314;-75
2022/10/16 05:10:56;;;;;;;;;0.00;0.00;;;;;17.40;79.83;100960.44;5063302;28;45337;-76
2022/10/16 05:13:23;;;;;;;;;0.00;0.00;;;;;16.99;79.40;100903.63;5053481;28;47512;-75
2022/10/16 05:15:49;;;;;;;;;0.00;0.00;;;;;17.18;79.61;100937.13;5065589;28;45820;-75
2022/10/16 05:18:15;;;;;;;;;0.00;0.00;;;;;17.43;79.73;100971.78;5076678;28;45433;-75
2022/10/16 05:20:41;;;;;;;;;0.00;0.00;;;;;16.98;79.93;100926.19;5076750;28;45525;-76
2022/10/16 05:23:07;;;;;;;;;0.00;0.00;;;;;17.14;79.93;100948.16;5076306;28;46168;-75
2022/10/16 05:25:32;;;;;;;;;0.00;0.00;;;;;17.45;80.63;100998.63;5076357;28;45323;-75
2022/10/16 05:27:57;;;;;;;;;0.00;0.00;;;;;17.45;80.37;100995.94;5057894;28;45414;-74
2022/10/16 05:30:23;;;;;;;;;0.00;0.00;;;;;17.35;80.73;100974.28;5076045;28;45621;-75
2022/10/16 05:32:49;;;;;;;;;0.00;0.00;;;;;17.52;80.19;100996.28;5041257;28;45707;-75
2022/10/16 05:35:16;;;;;;;;;0.00;0.00;;;;;17.52;79.93;100993.56;5076881;28;45545;-75
2022/10/16 05:37:41;;;;;;;;;2.00;1.00;;;;;17.54;80.68;100984.38;5076267;28;45407;-75
2022/10/16 05:40:08;;;;;;;;;0.00;0.00;;;;;17.50;80.47;100966.75;5076094;28;45373;-75
2022/10/16 05:42:33;;;;;;;;;0.00;0.00;;;;;17.46;80.49;100966.16;5076147;28;46113;-75
2022/10/16 05:44:58;;;;;;;;;0.00;0.00;;;;;17.57;80.34;100983.25;5076558;28;45417;-75
2022/10/16 05:47:24;;;;;;;;;0.67;0.67;;;;;17.52;79.98;100980.09;5043751;28;45512;-75
2022/10/16 05:49:49;;;;;;;;;0.00;0.00;;;;;17.57;79.98;100976.03;5035210;28;45479;-74
2022/10/16 05:52:14;;;;;;;;;0.00;0.00;;;;;17.57;79.90;100978.72;5035411;28;45808;-74
2022/10/16 05:54:40;;;;;;;;;0.00;0.00;;;;;17.57;79.80;100991.34;5035991;28;45412;-75
2022/10/16 05:57:05;;;;;;;;;1.00;0.00;;;;;17.58;79.56;100990.38;5075756;28;45315;-75
2022/10/16 05:59:31;;;;;;;;;0.00;0.00;;;;;17.57;79.94;100988.66;5067813;28;45609;-75
2022/10/16 06:01:56;;;;;;;;;0.00;0.00;;;;;17.58;80.02;101001.16;5056022;28;45312;-75
2022/10/16 06:04:22;;;;;;;;;0.00;0.00;;;;;17.57;79.89;101000.31;5056068;28;45339;-75
2022/10/16 06:06:47;;;;;;;;;0.00;0.00;;;;;17.58;79.78;100990.38;5068305;28;45318;-74
2022/10/16 06:09:12;;;;;;;;;1.00;0.00;;;;;17.55;80.12;100998.72;5074047;28;45379;-74
2022/10/16 06:11:38;;;;;;;;;0.00;0.00;;;;;17.54;80.00;100983.53;5037229;28;47370;-75
2022/10/16 06:14:06;;;;;;;;;1.00;1.00;;;;;17.47;79.93;100992.13;5055438;28;45399;-75
2022/10/16 06:16:35;;;;;;;;;0.00;0.00;;;;;17.01;79.91;100923.22;5055888;28;45264;-75
2022/10/16 06:19:00;;;;;;;;;0.00;0.00;;;;;17.27;80.05;100974.09;5058486;28;45468;-75
2022/10/16 06:21:27;;;;;;;;;0.00;0.00;;;;;17.44;80.19;100995.09;5075388;28;46076;-75
2022/10/16 06:23:54;;;;;;;;;0.00;0.00;;;;;17.26;80.45;100967.84;5057409;28;45391;-74
2022/10/16 06:26:22;;;;;;;;;0.00;0.00;;;;;17.27;80.08;100976.78;5075899;28;45372;-74
2022/10/16 06:28:48;;;;;;;;;0.00;0.00;;;;;17.28;80.11;100967.72;5076711;28;45356;-75
2022/10/16 06:31:14;;;;;;;;;0.00;0.00;;;;;17.36;79.70;100984.09;5076498;28;45478;-74
2022/10/16 06:33:39;;;;;;;;;1.00;0.00;;;;;17.26;79.84;100989.41;5076671;28;45539;-75
2022/10/16 06:36:11;;;;;;;;;0.00;0.00;;;;;17.27;80.08;101001.03;5076193;28;45424;-79
2022/10/16 06:38:37;;;;;;;;;0.00;0.00;;;;;17.26;80.19;101023.59;5077945;28;45293;-79
2022/10/16 06:41:04;;;;;;;;;0.00;0.00;;;;;17.23;80.17;101029.25;5078070;28;45432;-79
2022/10/16 06:43:35;;;;;;;;;0.00;0.00;;;;;17.19;80.11;101028.63;5077527;28;45461;-79
2022/10/16 06:46:01;;;;;;;;;0.00;0.00;;;;;17.17;80.68;101024.34;5077610;28;45385;-78
2022/10/16 06:48:27;;;;;;;;;0.00;0.00;;;;;17.16;80.89;101031.59;5077432;28;45333;-78
2022/10/16 06:51:10;;;;;;;;;0.00;0.00;;;;;17.18;80.71;101020.69;5076833;28;46410;-79
2022/10/16 06:53:39;;;;;;;;;0.00;0.00;;;;;17.22;80.69;101016.75;5076314;28;45319;-71
2022/10/16 06:56:09;;;;;;;;;0.67;0.67;;;;;17.26;80.61;101021.78;5077372;28;45331;-77
2022/10/16 06:58:34;;;;;;;;;0.33;0.33;;;;;17.32;80.04;101028.47;5076190;28;45422;-77
2022/10/16 07:00:59;;;;;;;;;0.00;0.00;;;;;17.28;79.83;101024.34;5074937;28;46198;-76
2022/10/16 07:03:25;;;;;;;;;1.00;1.00;;;;;17.32;81.36;101034.72;5075176;28;45322;-78
2022/10/16 07:05:50;;;;;;;;;0.67;0.67;;;;;17.43;81.07;101039.22;5074997;28;45607;-78
2022/10/16 07:08:16;;;;;;;;;0.00;0.00;;;;;17.48;79.69;101044.25;5074948;28;45613;-80
2022/10/16 07:10:41;;;;;;;;;1.00;1.00;;;;;17.47;79.51;101029.03;5052825;28;46051;-79
2022/10/16 07:13:07;;;;;;;;;0.67;0.67;;;;;17.46;79.84;101036.28;5036535;28;45382;-79
2022/10/16 07:15:33;;;;;;;;;0.00;0.00;;;;;17.52;79.63;101053.78;5054600;28;45294;-80
2022/10/16 07:17:59;;;;;;;;;0.67;0.00;;;;;17.56;79.58;101065.16;5053924;28;45466;-80
2022/10/16 07:20:24;;;;;;;;;0.00;0.00;;;;;17.62;80.47;101068.19;5054712;28;45454;-79
2022/10/16 07:22:50;;;;;;;;;0.00;0.00;;;;;17.62;79.41;101059.25;5055645;28;45355;-79
2022/10/16 07:25:15;;;;;;;;;0.00;0.00;;;;;17.65;80.38;101057.16;5056309;28;45473;-75
2022/10/16 07:27:41;;;;;;;;;0.00;0.00;;;;;17.44;79.89;101026.59;5051889;28;46565;-75
2022/10/16 07:30:08;;;;;;;;;2.00;0.00;;;;;17.65;80.14;101062.56;5044144;28;46199;-76
2022/10/16 07:32:33;;;;;;;;;0.00;0.00;;;;;17.72;80.55;101062.91;5034147;28;45407;-77
2022/10/16 07:34:59;;;;;;;;;0.00;0.00;;;;;17.88;80.11;101077.78;5039018;28;45514;-77
2022/10/16 07:37:24;;;;;;;;;1.67;0.67;;;;;18.00;79.73;101090.25;5066292;28;45402;-78
2022/10/16 07:39:49;;;;;;;;;1.67;0.67;;;;;18.11;78.96;101083.94;5039508;28;47026;-78
2022/10/16 07:42:15;;;;;;;;;0.00;0.00;;;;;18.19;77.64;101083.28;5062423;28;45249;-79
2022/10/16 07:44:40;;;;;;;;;1.00;1.00;;;;;18.24;78.33;101083.75;5049930;28;45362;-80
2022/10/16 07:47:06;;;;;;;;;0.00;0.00;;;;;18.29;78.56;101079.63;5053247;28;44953;-80
2022/10/16 07:49:31;;;;;;;;;0.00;0.00;;;;;18.34;78.20;101071.13;5086444;28;45266;-79
2022/10/16 07:51:57;;;;;;;;;0.00;0.00;;;;;18.63;77.26;101092.03;5060491;28;45263;-77
2022/10/16 07:54:22;;;;;;;;;0.67;0.67;;;;;18.75;76.66;101085.56;5078017;28;45302;-78
2022/10/16 07:56:48;;;;;;;;;0.67;0.67;;;;;18.68;75.54;101081.69;5079836;28;45270;-77
2022/10/16 07:59:13;;;;;;;;;0.00;0.00;;;;;18.73;75.29;101097.50;5046333;28;47780;-75
2022/10/16 08:01:39;;;;;;;;;2.67;2.67;;;;;18.67;74.41;101088.94;5077988;28;45372;-75
2022/10/16 08:04:05;;;;;;;;;2.67;2.67;;;;;18.61;74.76;101085.91;5077985;28;45385;-75
2022/10/16 08:06:35;;;;;;;;;2.00;2.00;;;;;18.70;73.90;101104.00;5077011;27;45382;-74
2022/10/16 08:09:00;;;;;;;;;2.67;2.67;;;;;18.58;74.69;101103.25;5077773;27;46183;-74
2022/10/16 08:11:26;;;;;;;;;1.00;1.00;;;;;18.64;74.80;101118.94;5075912;27;45322;-73
2022/10/16 08:13:51;;;;;;;;;1.00;1.00;;;;;18.66;74.66;101126.88;5077832;27;45360;-71
2022/10/16 08:16:17;;;;;;;;;0.00;0.00;;;;;18.71;75.04;101132.75;5076218;28;45481;-70
2022/10/16 08:18:42;;;;;;;;;0.00;0.00;;;;;18.71;74.31;101135.47;5077073;27;46458;-71
2022/10/16 08:21:14;;;;;;;;;1.00;0.00;;;;;18.76;74.63;101118.81;5077252;27;45274;-72
2022/10/16 08:23:40;;;;;;;;;0.00;0.00;;;;;18.74;74.20;101100.03;5077712;28;45344;-72
2022/10/16 08:26:07;;;;;;;;;0.00;0.00;;;;;18.75;74.65;101095.53;5075390;28;45607;-71
2022/10/16 08:28:33;;;;;;;;;0.00;0.00;;;;;18.77;74.69;101107.91;5077473;27;45418;-71
2022/10/16 08:31:10;;;;;;;;;0.00;0.00;;;;;18.77;74.50;101105.19;5077110;28;45368;-72
2022/10/16 08:33:37;;;;;;;;;0.00;0.00;;;;;18.65;74.67;101096.31;5077534;27;45366;-72
2022/10/16 08:36:03;;;;;;;;;1.67;1.67;;;;;18.86;74.54;101132.41;5077565;28;45423;-71
2022/10/16 08:38:28;;;;;;;;;1.33;0.00;;;;;18.82;75.11;101135.34;5077104;28;46457;-71
2022/10/16 08:41:03;;;;;;;;;1.00;0.00;;;;;18.74;74.07;101102.75;5092188;27;45430;-71
2022/10/16 08:43:43;;;;;;;;;0.00;0.00;;;;;18.95;72.94;101134.31;5077103;28;45318;-72
2022/10/16 08:46:21;;;;;;;;;0.00;0.00;;;;;19.04;73.49;101135.34;5077089;27;45519;-72
2022/10/16 08:48:50;;;;;;;;;0.00;0.00;;;;;19.10;73.37;101124.00;5076185;28;46111;-72
2022/10/16 08:51:28;;;;;;;;;0.00;0.00;;;;;19.38;72.68;101121.47;5074962;27;45393;-72
2022/10/16 08:53:59;;;;;;;;;1.33;1.33;;;;;19.48;71.18;101133.19;5075730;28;45404;-73
2022/10/16 08:56:25;;;;;;;;;1.00;1.00;;;;;20.23;70.60;101147.06;5073610;27;45359;-73
2022/10/16 08:58:53;;;;;;;;;1.00;1.00;;;;;20.27;69.07;101139.47;5061575;28;48674;-73
2022/10/16 09:01:22;;;;;;;;;0.00;0.00;;;;;20.78;67.92;101143.66;5067336;27;45576;-73
2022/10/16 09:04:04;;;;;;;;;2.00;0.67;;;;;21.45;65.37;101143.47;5065580;28;45514;-72
2022/10/16 09:06:37;;;;;;;;;2.00;1.00;;;;;23.56;60.06;101146.34;5075451;27;45406;-73
2022/10/16 09:09:36;;;;;;;;;1.33;0.00;;;;;24.46;56.73;101149.13;5064010;28;45994;-72
2022/10/16 09:12:12;;;;;;;;;1.67;1.67;;;;;25.19;54.96;101149.94;5071517;28;45479;-72
2022/10/16 09:14:37;;;;;;;;;1.33;1.33;;;;;26.33;52.53;101135.75;5076287;27;45514;-76
2022/10/16 09:17:35;;;;;;;;;2.00;2.00;;;;;26.80;50.90;101133.72;5076474;27;45456;-75
2022/10/16 09:20:22;;;;;;;;;2.00;1.00;;;;;27.60;48.27;101130.31;5053181;28;46550;-74
2022/10/16 09:22:47;;;;;;;;;4.00;2.67;;;;;28.40;47.42;101130.22;5053847;28;45539;-73
2022/10/16 09:25:16;;;;;;;;;0.00;0.00;;;;;29.01;45.28;101121.34;5054716;28;45347;-74
2022/10/16 09:27:45;;;;;;;;;2.00;2.00;;;;;29.48;44.50;101121.53;5056264;28;45446;-74
2022/10/16 09:30:16;;;;;;;;;1.00;1.00;;;;;29.13;44.42;101114.19;5056176;28;46498;-73
2022/10/16 09:32:44;;;;;;;;;2.00;1.00;;;;;28.01;46.66;101152.47;5056660;28;45402;-74
2022/10/16 09:35:22;;;;;;;;;2.00;2.00;;;;;26.67;48.74;101158.16;5057053;28;45382;-74
2022/10/16 09:37:50;;;;;;;;;2.00;1.00;;;;;25.97;51.48;101146.47;5056764;28;45551;-74
2022/10/16 09:40:32;;;;;;;;;3.33;2.33;;;;;25.32;51.90;101145.78;5056618;28;45383;-73
2022/10/16 09:43:21;;;;;;;;;1.67;1.67;;;;;24.45;53.49;101114.69;5039111;28;45434;-73
2022/10/16 09:45:58;;;;;;;;;3.33;2.33;;;;;24.22;55.05;101143.72;5058023;28;45495;-73
2022/10/16 09:48:28;;;;;;;;;0.33;0.33;;;;;23.83;55.80;101135.13;5041907;28;45397;-74
2022/10/16 09:50:59;;;;;;;;;3.00;1.00;;;;;23.49;56.58;101149.72;5054241;28;47103;-74
2022/10/16 09:53:36;;;;;;;;;1.00;1.00;;;;;23.20;57.34;101146.56;5052999;28;45334;-74
2022/10/16 09:56:01;;;;;;;;;1.00;1.00;;;;;22.93;57.76;101140.28;5055152;28;45456;-73
2022/10/16 09:58:26;;;;;;;;;0.00;0.00;;;;;22.69;58.52;101133.72;5076978;27;45467;-73
2022/10/16 10:00:53;;;;;;;;;1.00;1.00;;;;;22.60;59.21;101137.41;5075039;27;45950;-73
2022/10/16 10:03:49;;;;;;;;;1.00;1.00;;;;;22.45;60.24;101131.69;5077579;27;45405;-73
2022/10/16 10:06:21;;;;;;;;;2.00;2.00;;;;;22.41;60.12;101128.44;5067711;27;45796;-74
2022/10/16 10:09:21;;;;;;;;;1.00;1.00;;;;;22.49;60.31;101127.66;5073513;28;45314;-74
2022/10/16 10:12:01;;;;;;;;;1.00;1.00;;;;;22.89;59.60;101128.91;5047141;28;46279;-73
2022/10/16 10:14:44;;;;;;;;;3.67;2.67;;;;;23.07;59.40;101127.97;5049332;28;46399;-74
2022/10/16 10:17:16;;;;;;;;;2.33;2.33;;;;;23.00;58.92;101125.03;5051896;28;45381;-74
2022/10/16 10:20:01;;;;;;;;;2.00;2.00;;;;;22.99;58.80;101120.59;5042831;28;45560;-74
2022/10/16 10:22:38;;;;;;;;;2.00;2.00;;;;;22.94;59.38;101115.63;4991841;28;45470;-74
2022/10/16 10:25:13;;;;;;;;;7.00;6.00;;;;;22.99;58.97;101118.72;4994343;28;45387;-74
2022/10/16 10:28:04;;;;;;;;;4.00;3.67;;;;;22.90;58.97;101121.59;4992096;28;45638;-74
2022/10/16 10:30:54;;;;;;;;;2.00;2.00;;;;;22.76;58.82;101123.06;4993858;28;45345;-74
2022/10/16 10:33:43;;;;;;;;;3.75;3.75;;;;;22.63;59.01;101116.19;4994367;28;45383;-73
2022/10/16 10:36:11;;;;;;;;;5.00;5.00;;;;;22.53;59.01;101117.31;4997303;28;45529;-73
2022/10/16 10:38:42;;;;;;;;;5.00;4.00;;;;;22.42;58.90;101119.28;4995922;28;45510;-74
2022/10/16 10:41:12;;;;;;;;;3.33;3.33;;;;;22.39;60.31;101118.75;4998521;28;45518;-73
2022/10/16 10:43:44;;;;;;;;;3.33;3.33;;;;;22.37;60.17;101116.19;4993599;28;45893;-73
2022/10/16 10:46:24;;;;;;;;;3.00;3.00;;;;;22.05;59.87;101084.16;4989482;28;45492;-73
2022/10/16 10:48:52;;;;;;;;;4.00;4.00;;;;;22.17;60.87;101110.06;5006000;28;45362;-74
2022/10/16 10:51:40;;;;;;;;;2.67;2.67;;;;;22.14;60.50;101100.38;5007150;28;45672;-73
2022/10/16 10:54:27;;;;;;;;;4.00;4.00;;;;;22.07;61.01;101099.31;5002645;28;46274;-73
2022/10/16 10:57:08;;;;;;;;;4.33;3.67;;;;;22.00;60.61;101095.53;5026718;28;45535;-73
2022/10/16 10:59:46;;;;;;;;;3.67;3.67;;;;;22.02;60.04;101093.47;5034574;27;45584;-73
2022/10/16 11:02:32;;;;;;;;;2.33;2.33;;;;;22.14;60.71;101089.50;5061068;27;45403;-75
2022/10/16 11:05:25;;;;;;;;;2.00;2.00;;;;;22.17;58.33;101097.34;5076137;27;45459;-73
2022/10/16 11:07:58;;;;;;;;;3.67;2.67;;;;;22.14;58.83;101069.63;5080589;27;45668;-75
2022/10/16 11:10:28;;;;;;;;;2.33;2.33;;;;;22.28;58.38;101077.22;5080615;27;45294;-73
2022/10/16 11:13:19;;;;;;;;;2.00;2.00;;;;;22.21;58.31;101083.44;5078804;27;45427;-73
2022/10/16 11:15:47;;;;;;;;;2.00;1.00;;;;;22.26;59.06;101086.53;5091369;27;46380;-74
2022/10/16 11:18:26;;;;;;;;;2.33;2.00;;;;;22.24;59.45;101086.69;5086310;27;45400;-74
2022/10/16 11:21:00;;;;;;;;;3.00;2.00;;;;;21.85;59.63;101038.19;5107997;27;45354;-74
2022/10/16 11:23:36;;;;;;;;;2.00;2.00;;;;;22.08;60.08;101090.16;5079300;27;45503;-74
2022/10/16 11:26:06;;;;;;;;;2.00;2.00;;;;;21.89;61.13;101088.47;5073975;27;47257;-75
2022/10/16 11:28:38;;;;;;;;;1.33;1.33;;;;;21.90;61.06;101095.59;5077131;27;45522;-74
2022/10/16 11:31:35;;;;;;;;;1.00;1.00;;;;;21.82;61.89;101093.69;5082290;27;45373;-74
2022/10/16 11:34:14;;;;;;;;;0.00;0.00;;;;;21.44;62.20;101022.38;5072540;27;45912;-74
2022/10/16 11:36:48;;;;;;;;;2.00;1.00;;;;;21.80;61.95;101073.13;5095423;27;45392;-73